createdAt,value
2023-05-17T00:02:24.195Z,18.30
2023-05-17T00:05:26.258Z,20.90
2023-05-17T00:08:28.358Z,25.17
2023-05-17T00:11:30.570Z,22.63
2023-05-17T00:14:32.495Z,26.00
2023-05-17T00:17:34.595Z,20.33
2023-05-17T00:20:36.827Z,18.37
2023-05-17T00:23:39.452Z,17.37
2023-05-17T00:26:41.794Z,18.77
2023-05-17T00:29:43.867Z,17.30
2023-05-17T00:32:47.125Z,18.37
2023-05-17T00:35:49.538Z,22.00
2023-05-17T00:38:51.536Z,16.77
2023-05-17T00:41:53.634Z,20.33
2023-05-17T00:44:55.600Z,16.67
2023-05-17T00:47:57.797Z,24.07
2023-05-17T00:50:59.881Z,17.13
2023-05-17T00:54:05.640Z,17.17
2023-05-17T00:57:08.076Z,16.30
2023-05-17T01:00:10.565Z,12.53
2023-05-17T01:03:12.552Z,21.97
2023-05-17T01:06:15.241Z,14.00
2023-05-17T01:09:17.516Z,19.57
2023-05-17T01:12:25.366Z,17.60
2023-05-17T01:15:32.186Z,18.20
2023-05-17T01:18:42.403Z,18.13
2023-05-17T01:22:15.680Z,17.27
2023-05-17T01:25:58.405Z,17.07
2023-05-17T01:29:01.270Z,17.17
2023-05-17T01:32:03.849Z,14.37
2023-05-17T01:35:06.218Z,13.63
2023-05-17T01:38:08.249Z,19.93
2023-05-17T01:41:18.189Z,15.37
2023-05-17T01:44:36.517Z,25.57
2023-05-17T01:47:56.782Z,18.17
2023-05-17T01:50:59.558Z,16.07
2023-05-17T01:54:03.614Z,20.03
2023-05-17T01:57:07.978Z,18.70
2023-05-17T02:00:12.063Z,17.50
2023-05-17T02:03:18.518Z,18.17
2023-05-17T02:06:20.482Z,22.70
2023-05-17T02:09:22.485Z,23.70
2023-05-17T02:12:25.602Z,18.80
2023-05-17T02:15:27.790Z,19.47
2023-05-17T02:18:30.641Z,21.03
2023-05-17T02:21:32.994Z,17.60
2023-05-17T02:24:34.863Z,18.07
2023-05-17T02:27:36.802Z,18.93
2023-05-17T02:30:41.874Z,20.40
2023-05-17T02:33:43.853Z,19.43
2023-05-17T02:36:46.536Z,17.47
2023-05-17T02:39:48.484Z,18.60
2023-05-17T02:42:50.488Z,18.37
2023-05-17T02:45:52.390Z,17.77
2023-05-17T02:48:54.448Z,17.33
2023-05-17T02:51:56.415Z,25.10
2023-05-17T02:54:58.427Z,20.13
2023-05-17T02:58:00.376Z,17.20
2023-05-17T03:01:02.406Z,18.10
2023-05-17T03:04:04.896Z,15.87
2023-05-17T03:07:07.442Z,16.33
2023-05-17T03:10:09.606Z,19.73
2023-05-17T03:13:11.573Z,20.10
2023-05-17T03:16:13.485Z,20.80
2023-05-17T03:19:16.250Z,23.93
2023-05-17T03:22:18.392Z,21.87
2023-05-17T03:25:20.545Z,20.17
2023-05-17T03:28:22.522Z,16.03
2023-05-17T03:31:24.701Z,19.40
2023-05-17T03:34:26.765Z,22.13
2023-05-17T03:37:28.700Z,18.47
2023-05-17T03:40:30.741Z,22.87
2023-05-17T03:43:32.906Z,16.90
2023-05-17T03:46:35.310Z,20.70
2023-05-17T03:49:40.383Z,19.13
2023-05-17T03:52:42.588Z,16.77
2023-05-17T03:55:44.787Z,18.73
2023-05-17T03:58:47.401Z,16.67
2023-05-17T04:01:49.660Z,16.43
2023-05-17T04:04:53.297Z,15.10
2023-05-17T04:07:55.381Z,21.33
2023-05-17T04:10:57.292Z,14.47
2023-05-17T04:13:59.706Z,14.87
2023-05-17T04:17:01.587Z,16.43
2023-05-17T04:20:07.164Z,18.73
2023-05-17T04:23:09.452Z,15.00
2023-05-17T04:26:11.453Z,21.70
2023-05-17T04:29:13.581Z,17.63
2023-05-17T04:32:16.063Z,14.47
2023-05-17T04:35:18.005Z,16.70
2023-05-17T04:38:20.378Z,15.07
2023-05-17T04:41:22.426Z,12.57
2023-05-17T04:44:24.405Z,17.73
2023-05-17T04:47:26.459Z,12.90
2023-05-17T04:50:28.463Z,15.70
2023-05-17T04:53:31.120Z,12.07
2023-05-17T04:56:34.525Z,9.83
2023-05-17T04:59:36.949Z,13.13
2023-05-17T05:02:39.096Z,12.10
2023-05-17T05:05:40.992Z,8.93
2023-05-17T05:08:42.936Z,11.83
2023-05-17T05:11:44.754Z,11.00
2023-05-17T05:14:47.212Z,10.17
2023-05-17T05:17:49.139Z,10.03
2023-05-17T05:20:51.258Z,10.47
2023-05-17T05:23:53.267Z,8.43
2023-05-17T05:26:55.168Z,8.10
2023-05-17T05:29:57.149Z,7.27
2023-05-17T05:32:59.275Z,11.30
2023-05-17T05:36:01.279Z,10.27
2023-05-17T05:39:03.458Z,10.90
2023-05-17T05:42:05.757Z,10.03
2023-05-17T05:45:08.580Z,11.77
2023-05-17T05:48:10.654Z,7.73
2023-05-17T05:51:12.656Z,9.27
2023-05-17T05:54:14.590Z,8.67
2023-05-17T05:57:16.902Z,7.50
2023-05-17T06:00:19.038Z,7.93
2023-05-17T06:03:21.386Z,9.57
2023-05-17T06:06:25.485Z,12.03
2023-05-17T06:09:27.523Z,9.97
2023-05-17T06:12:29.517Z,10.13
2023-05-17T06:15:32.252Z,11.23
2023-05-17T06:18:34.454Z,9.33
2023-05-17T06:21:40.891Z,7.37
2023-05-17T06:24:42.830Z,8.23
2023-05-17T06:27:44.981Z,6.20
2023-05-17T06:30:47.073Z,12.47
2023-05-17T06:33:49.241Z,11.23
2023-05-17T06:36:51.318Z,7.53
2023-05-17T06:40:00.019Z,8.37
2023-05-17T06:43:06.303Z,6.67
2023-05-17T06:46:08.292Z,8.00
2023-05-17T06:49:10.153Z,5.00
2023-05-17T06:52:12.222Z,9.60
2023-05-17T06:55:14.248Z,10.27
2023-05-17T06:58:16.173Z,6.70
2023-05-17T07:01:18.962Z,8.50
2023-05-17T07:04:21.645Z,8.57
2023-05-17T07:07:23.568Z,5.57
2023-05-17T07:10:25.620Z,4.57
2023-05-17T07:13:27.466Z,6.57
2023-05-17T07:16:30.649Z,12.00
2023-05-17T07:19:32.700Z,5.90
2023-05-17T07:22:35.070Z,6.03
2023-05-17T07:25:39.049Z,7.23
2023-05-17T07:28:41.114Z,7.47
2023-05-17T07:31:43.033Z,8.40
2023-05-17T07:34:47.146Z,10.70
2023-05-17T07:37:49.214Z,6.30
2023-05-17T07:40:51.199Z,8.13
2023-05-17T07:43:53.073Z,7.70
2023-05-17T07:46:55.356Z,7.77
2023-05-17T07:49:57.345Z,10.33
2023-05-17T07:52:59.613Z,10.57
2023-05-17T07:56:01.475Z,6.17
2023-05-17T07:59:03.508Z,12.83
2023-05-17T08:02:05.784Z,4.87
2023-05-17T08:05:09.050Z,7.43
2023-05-17T08:08:11.415Z,8.73
2023-05-17T08:11:13.855Z,5.03
2023-05-17T08:14:16.948Z,4.83
2023-05-17T08:17:18.842Z,5.00
2023-05-17T08:20:20.806Z,5.93
2023-05-17T08:23:22.728Z,7.73
2023-05-17T08:26:24.771Z,10.17
2023-05-17T08:29:26.902Z,5.17
2023-05-17T08:32:30.077Z,5.93
2023-05-17T08:35:32.197Z,7.33
2023-05-17T08:38:34.987Z,8.23
2023-05-17T08:41:36.897Z,4.97
2023-05-17T08:44:39.381Z,7.57
2023-05-17T08:47:43.719Z,4.77
2023-05-17T08:50:47.483Z,6.83
2023-05-17T08:53:51.528Z,8.13
2023-05-17T08:57:00.933Z,7.03
2023-05-17T09:00:07.111Z,9.10
2023-05-17T09:03:09.545Z,7.90
2023-05-17T09:06:12.400Z,8.97
2023-05-17T09:09:14.545Z,6.27
2023-05-17T09:12:16.380Z,7.23
2023-05-17T09:15:20.737Z,4.57
2023-05-17T09:18:33.360Z,5.53
2023-05-17T09:21:35.716Z,6.37
2023-05-17T09:24:37.888Z,7.57
2023-05-17T09:27:40.465Z,4.37
2023-05-17T09:30:42.681Z,4.13
2023-05-17T09:33:47.504Z,10.57
2023-05-17T09:36:49.480Z,5.50
2023-05-17T09:39:51.531Z,4.47
2023-05-17T09:42:53.460Z,5.67
2023-05-17T09:45:57.268Z,6.83
2023-05-17T09:49:02.452Z,3.47
2023-05-17T09:52:08.864Z,7.53
2023-05-17T09:55:15.327Z,2.97
2023-05-17T09:58:17.404Z,6.63
2023-05-17T10:01:19.710Z,5.23
2023-05-17T10:04:23.782Z,6.83
2023-05-17T10:07:27.524Z,6.67
2023-05-17T10:10:30.443Z,6.77
2023-05-17T10:13:40.920Z,3.77
2023-05-17T10:16:43.377Z,3.30
2023-05-17T10:19:46.572Z,5.13
2023-05-17T10:22:50.456Z,3.37
2023-05-17T10:25:52.627Z,3.83
2023-05-17T10:29:01.354Z,5.90
2023-05-17T10:32:07.880Z,2.67
2023-05-17T10:35:12.254Z,3.50
2023-05-17T10:38:14.755Z,3.00
2023-05-17T10:41:18.133Z,5.40
2023-05-17T10:44:20.268Z,3.70
2023-05-17T10:47:33.473Z,3.10
2023-05-17T10:50:47.321Z,6.07
2023-05-17T10:54:08.287Z,4.13
2023-05-17T10:57:20.497Z,3.93
2023-05-17T11:00:28.797Z,3.77
2023-05-17T11:03:31.150Z,7.50
2023-05-17T11:06:36.692Z,4.57
2023-05-17T11:09:41.024Z,3.43
2023-05-17T11:12:47.090Z,5.10
2023-05-17T11:16:04.990Z,6.57
2023-05-17T11:19:12.205Z,3.13
2023-05-17T11:22:16.453Z,8.03
2023-05-17T11:25:19.266Z,3.17
2023-05-17T11:28:23.196Z,4.40
2023-05-17T11:31:35.775Z,2.73
2023-05-17T11:34:38.560Z,4.20
2023-05-17T11:37:44.659Z,6.10
2023-05-17T11:40:48.800Z,4.00
2023-05-17T11:43:51.571Z,3.60
2023-05-17T11:47:12.774Z,7.30
2023-05-17T11:50:16.368Z,5.03
2023-05-17T11:53:19.723Z,6.03
2023-05-17T11:56:32.436Z,3.83
2023-05-17T11:59:44.641Z,1.70
2023-05-17T12:02:46.649Z,2.80
2023-05-17T12:05:50.559Z,5.07
2023-05-17T12:08:52.655Z,2.07
2023-05-17T12:11:55.984Z,1.47
2023-05-17T12:14:58.885Z,4.73
2023-05-17T12:18:01.197Z,2.07
2023-05-17T12:21:03.118Z,1.63
2023-05-17T12:24:05.568Z,3.30
2023-05-17T12:27:07.684Z,2.40
2023-05-17T12:30:15.986Z,2.53
2023-05-17T12:33:18.044Z,5.27
2023-05-17T12:36:20.180Z,3.43
2023-05-17T12:39:25.443Z,2.10
2023-05-17T12:42:27.507Z,1.83
2023-05-17T12:45:29.502Z,1.73
2023-05-17T12:48:32.465Z,1.43
2023-05-17T12:51:45.881Z,1.93
2023-05-17T12:54:47.899Z,1.73
2023-05-17T12:57:51.968Z,1.97
2023-05-17T13:01:05.412Z,1.70
2023-05-17T13:04:07.380Z,1.20
2023-05-17T13:07:09.402Z,1.17
2023-05-17T13:10:24.447Z,1.33
2023-05-17T13:13:26.477Z,2.20
2023-05-17T13:16:30.042Z,1.60
2023-05-17T13:19:32.468Z,2.17
2023-05-17T13:22:34.553Z,3.63
2023-05-17T13:25:37.157Z,3.33
2023-05-17T13:28:40.479Z,1.23
2023-05-17T13:31:43.301Z,2.67
2023-05-17T13:34:45.359Z,3.50
2023-05-17T13:37:47.278Z,3.50
2023-05-17T13:40:49.236Z,3.03
2023-05-17T13:43:51.456Z,4.67
2023-05-17T13:46:53.361Z,3.03
2023-05-17T13:49:55.318Z,2.57
2023-05-17T13:52:57.253Z,4.53
2023-05-17T13:55:59.261Z,3.77
2023-05-17T13:59:01.258Z,5.17
2023-05-17T14:02:04.715Z,4.27
2023-05-17T14:05:07.750Z,2.17
2023-05-17T14:08:09.705Z,3.43
2023-05-17T14:11:11.839Z,3.40
2023-05-17T14:14:14.236Z,3.50
2023-05-17T14:17:16.239Z,2.33
2023-05-17T14:20:18.379Z,3.40
2023-05-17T14:23:20.365Z,3.10
2023-05-17T14:26:23.627Z,3.03
2023-05-17T14:29:25.796Z,7.10
2023-05-17T14:32:28.236Z,4.53
2023-05-17T14:35:30.991Z,5.93
2023-05-17T14:38:33.449Z,4.07
2023-05-17T14:41:35.881Z,5.73
2023-05-17T14:44:40.038Z,1.80
2023-05-17T14:47:42.001Z,3.20
2023-05-17T14:50:43.933Z,4.93
2023-05-17T14:53:45.821Z,3.30
2023-05-17T14:56:47.804Z,3.90
2023-05-17T14:59:49.660Z,4.63
2023-05-17T15:02:52.665Z,3.83
2023-05-17T15:05:58.849Z,3.90
2023-05-17T15:09:03.507Z,8.03
2023-05-17T15:12:06.248Z,5.67
2023-05-17T15:15:09.119Z,3.83
2023-05-17T15:18:11.515Z,3.67
2023-05-17T15:21:13.559Z,3.33
2023-05-17T15:24:17.191Z,3.03
2023-05-17T15:27:20.371Z,5.07
2023-05-17T15:30:27.373Z,2.63
2023-05-17T15:33:29.768Z,6.17
2023-05-17T15:36:31.862Z,3.93
2023-05-17T15:39:34.432Z,7.27
2023-05-17T15:42:36.468Z,6.50
2023-05-17T15:45:38.399Z,4.00
2023-05-17T15:48:40.404Z,5.80
2023-05-17T15:51:42.473Z,3.67
2023-05-17T15:54:46.074Z,5.47
2023-05-17T15:57:48.075Z,4.83
2023-05-17T16:00:50.078Z,5.30
2023-05-17T16:03:52.131Z,11.90
2023-05-17T16:06:54.098Z,7.20
2023-05-17T16:09:56.057Z,6.63
2023-05-17T16:12:58.637Z,4.20
2023-05-17T16:16:01.185Z,4.27
2023-05-17T16:19:04.759Z,4.70
2023-05-17T16:22:06.911Z,7.53
2023-05-17T16:25:09.422Z,7.50
2023-05-17T16:28:11.690Z,4.17
2023-05-17T16:31:13.670Z,4.23
2023-05-17T16:34:15.866Z,5.57
2023-05-17T16:37:17.880Z,6.03
2023-05-17T16:40:19.873Z,4.83
2023-05-17T16:43:21.781Z,10.60
2023-05-17T16:46:25.042Z,6.13
2023-05-17T16:49:26.923Z,4.73
2023-05-17T16:52:30.421Z,3.07
2023-05-17T16:55:32.899Z,4.87
2023-05-17T16:58:34.838Z,2.80
2023-05-17T17:01:36.761Z,4.37
2023-05-17T17:04:38.903Z,5.30
2023-05-17T17:07:40.968Z,3.90
2023-05-17T17:10:43.095Z,3.80
2023-05-17T17:13:45.053Z,4.40
2023-05-17T17:16:47.432Z,3.60
2023-05-17T17:19:49.315Z,9.63
2023-05-17T17:22:51.466Z,4.77
2023-05-17T17:25:53.416Z,4.93
2023-05-17T17:28:55.381Z,3.20
2023-05-17T17:31:57.635Z,5.60
2023-05-17T17:34:59.726Z,2.93
2023-05-17T17:38:03.324Z,7.37
2023-05-17T17:41:05.918Z,4.77
2023-05-17T17:44:07.774Z,6.10
2023-05-17T17:47:10.654Z,3.20
2023-05-17T17:50:12.619Z,4.70
2023-05-17T17:53:15.213Z,3.33
2023-05-17T17:56:18.599Z,1.87
2023-05-17T17:59:21.206Z,3.97
2023-05-17T18:02:23.116Z,2.80
2023-05-17T18:05:27.081Z,3.13
2023-05-17T18:08:28.935Z,3.17
2023-05-17T18:11:31.664Z,2.53
2023-05-17T18:14:34.026Z,4.83
2023-05-17T18:17:36.216Z,4.07
2023-05-17T18:20:38.126Z,6.10
2023-05-17T18:23:40.237Z,6.60
2023-05-17T18:26:43.900Z,4.23
2023-05-17T18:29:46.526Z,3.13
2023-05-17T18:32:49.362Z,2.97
2023-05-17T18:35:53.214Z,2.77
2023-05-17T18:38:58.823Z,3.93
2023-05-17T18:42:01.157Z,2.57
2023-05-17T18:45:04.427Z,3.83
2023-05-17T18:48:07.979Z,2.37
2023-05-17T18:51:10.142Z,3.70
2023-05-17T18:54:12.152Z,11.70
2023-05-17T18:57:15.595Z,2.30
2023-05-17T19:00:21.822Z,3.80
2023-05-17T19:03:23.798Z,3.33
2023-05-17T19:06:29.766Z,2.43
2023-05-17T19:09:33.733Z,3.50
2023-05-17T19:12:35.866Z,2.90
2023-05-17T19:15:37.818Z,2.20
2023-05-17T19:18:41.601Z,4.23
2023-05-17T19:21:44.355Z,3.10
2023-05-17T19:24:49.292Z,2.10
2023-05-17T19:27:51.460Z,4.33
2023-05-17T19:30:53.396Z,3.07
2023-05-17T19:33:55.316Z,3.60
2023-05-17T19:36:58.988Z,3.30
2023-05-17T19:40:01.587Z,2.07
2023-05-17T19:43:03.509Z,5.13
2023-05-17T19:46:10.054Z,3.70
2023-05-17T19:49:13.264Z,2.40
2023-05-17T19:52:15.297Z,2.60
2023-05-17T19:55:22.320Z,4.47
2023-05-17T19:58:26.217Z,2.60
2023-05-17T20:01:28.173Z,1.50
2023-05-17T20:04:30.351Z,2.90
2023-05-17T20:07:33.547Z,5.27
2023-05-17T20:10:36.495Z,5.33
2023-05-17T20:13:41.071Z,3.93
2023-05-17T20:16:43.832Z,4.30
2023-05-17T20:19:45.832Z,6.10
2023-05-17T20:22:48.406Z,4.70
2023-05-17T20:25:50.366Z,4.33
2023-05-17T20:28:53.377Z,6.30
2023-05-17T20:31:56.019Z,3.73
2023-05-17T20:34:58.139Z,8.40
2023-05-17T20:38:00.340Z,3.50
2023-05-17T20:41:02.280Z,2.63
2023-05-17T20:44:05.014Z,3.27
2023-05-17T20:47:07.743Z,2.67
2023-05-17T20:50:12.644Z,3.93
2023-05-17T20:53:15.645Z,2.37
2023-05-17T20:56:20.893Z,3.20
2023-05-17T20:59:23.747Z,2.33
2023-05-17T21:02:25.816Z,5.10
2023-05-17T21:05:28.885Z,7.30
2023-05-17T21:08:33.110Z,3.27
2023-05-17T21:11:35.001Z,3.73
2023-05-17T21:14:37.372Z,6.43
2023-05-17T21:17:39.328Z,3.33
2023-05-17T21:20:41.386Z,2.73
2023-05-17T21:23:43.355Z,2.80
2023-05-17T21:26:45.354Z,3.53
2023-05-17T21:29:47.375Z,2.10
2023-05-17T21:32:49.488Z,3.20
2023-05-17T21:35:51.779Z,2.73
2023-05-17T21:38:54.166Z,3.57
2023-05-17T21:41:56.026Z,3.63
2023-05-17T21:44:58.330Z,2.93
2023-05-17T21:48:00.314Z,5.43
2023-05-17T21:51:02.446Z,4.83
2023-05-17T21:54:04.762Z,2.53
2023-05-17T21:57:06.734Z,3.33
2023-05-17T22:00:13.182Z,2.37
2023-05-17T22:03:16.422Z,4.77
2023-05-17T22:06:19.947Z,2.63
2023-05-17T22:09:22.013Z,3.53
2023-05-17T22:12:26.388Z,4.93
2023-05-17T22:15:29.019Z,3.07
2023-05-17T22:18:32.172Z,6.07
2023-05-17T22:21:34.275Z,2.13
2023-05-17T22:24:36.281Z,3.57
2023-05-17T22:27:38.463Z,2.97
2023-05-17T22:30:40.325Z,2.50
2023-05-17T22:33:42.580Z,5.20
2023-05-17T22:36:44.540Z,6.90
2023-05-17T22:39:47.928Z,2.57
2023-05-17T22:42:52.082Z,2.40
2023-05-17T22:45:54.217Z,3.73
2023-05-17T22:48:58.162Z,2.10
2023-05-17T22:52:06.199Z,3.03
2023-05-17T22:55:09.178Z,3.00
2023-05-17T22:58:11.623Z,3.20
2023-05-17T23:01:14.393Z,4.63
2023-05-17T23:04:16.527Z,3.47
2023-05-17T23:07:18.440Z,3.23
2023-05-17T23:10:20.748Z,3.70
2023-05-17T23:13:22.718Z,2.93
2023-05-17T23:16:29.007Z,2.83
2023-05-17T23:19:31.521Z,5.60
2023-05-17T23:22:34.573Z,4.00
2023-05-17T23:25:37.553Z,4.47
2023-05-17T23:28:39.597Z,3.17
2023-05-17T23:31:41.678Z,4.07
2023-05-17T23:34:46.361Z,4.63
2023-05-17T23:37:48.213Z,2.77
2023-05-17T23:40:50.638Z,4.63
2023-05-17T23:43:52.595Z,4.63
2023-05-17T23:46:56.429Z,4.13
2023-05-17T23:49:58.376Z,3.53
2023-05-17T23:53:03.613Z,7.00
2023-05-17T23:56:05.801Z,3.50
2023-05-17T23:59:07.749Z,3.40
